createdAt,value
2018-12-05T00:04:39.408Z,97950.31
2018-12-05T00:09:34.514Z,97954.53
2018-12-05T00:14:31.878Z,97950.72
2018-12-05T00:19:27.538Z,97944.16
2018-12-05T00:24:22.452Z,97938.21
2018-12-05T00:29:17.663Z,97941.02
2018-12-05T00:34:13.349Z,97932.48
2018-12-05T00:39:11.813Z,97942.98
2018-12-05T00:44:08.373Z,97941.57
2018-12-05T00:49:04.258Z,97946.17
2018-12-05T00:53:59.372Z,97952.11
2018-12-05T00:58:55.827Z,97935.27
2018-12-05T01:03:50.775Z,97935.98
2018-12-05T01:08:47.913Z,97941.22
2018-12-05T01:13:44.600Z,97935.80
2018-12-05T01:18:40.419Z,97941.28
2018-12-05T01:23:37.020Z,97931.61
2018-12-05T01:33:40.280Z,97936.74
2018-12-05T01:38:35.339Z,97935.96
2018-12-05T01:43:35.536Z,97925.91
2018-12-05T01:48:30.501Z,97929.48
2018-12-05T01:53:25.453Z,97938.33
2018-12-05T01:58:21.262Z,97938.41
2018-12-05T02:03:16.446Z,97949.30
2018-12-05T02:08:11.314Z,97941.06
2018-12-05T02:13:06.325Z,97937.15
2018-12-05T02:18:06.053Z,97941.21
2018-12-05T02:23:00.890Z,97914.54
2018-12-05T02:27:55.713Z,97918.39
2018-12-05T02:32:52.544Z,97910.80
2018-12-05T02:37:47.642Z,97914.84
2018-12-05T02:42:42.643Z,97920.16
2018-12-05T02:47:37.553Z,97921.00
2018-12-05T02:52:32.547Z,97917.77
2018-12-05T02:57:27.329Z,97922.89
2018-12-05T03:02:23.197Z,97929.67
2018-12-05T03:07:18.123Z,97930.52
2018-12-05T03:12:12.982Z,97926.92
2018-12-05T03:17:08.450Z,97932.47
2018-12-05T03:22:03.275Z,97918.39
2018-12-05T03:26:58.103Z,97919.54
2018-12-05T03:31:52.983Z,97927.90
2018-12-05T03:36:47.840Z,97926.98
2018-12-05T03:41:42.635Z,97917.75
2018-12-05T03:46:37.465Z,97916.91
2018-12-05T03:51:32.445Z,97906.14
2018-12-05T03:56:27.392Z,97898.70
2018-12-05T04:01:22.385Z,97904.72
2018-12-05T04:06:17.126Z,97903.98
2018-12-05T04:11:11.986Z,97911.34
2018-12-05T04:16:06.884Z,97909.93
2018-12-05T04:21:01.721Z,97924.78
2018-12-05T04:25:56.508Z,97942.63
2018-12-05T04:30:51.291Z,97944.45
2018-12-05T04:35:46.106Z,97942.16
2018-12-05T04:40:41.087Z,97950.50
2018-12-05T04:45:35.950Z,97966.59
2018-12-05T04:50:31.920Z,97963.84
2018-12-05T04:55:26.654Z,97965.34
2018-12-05T05:00:21.592Z,97955.38
2018-12-05T05:05:16.776Z,97947.17
2018-12-05T05:10:13.691Z,97939.35
2018-12-05T05:15:08.604Z,97936.86
2018-12-05T05:20:03.678Z,97928.66
2018-12-05T05:24:58.521Z,97928.20
2018-12-05T05:29:53.484Z,97931.27
2018-12-05T05:40:32.385Z,97919.28
2018-12-05T05:50:35.565Z,97929.48
2018-12-05T06:06:33.795Z,97918.91
2018-12-05T06:12:39.375Z,97911.94
2018-12-05T06:17:37.541Z,97924.08
2018-12-05T06:22:35.794Z,97922.70
2018-12-05T06:27:30.734Z,97926.33
2018-12-05T06:32:25.834Z,97932.27
2018-12-05T06:37:20.719Z,97919.70
2018-12-05T06:42:15.622Z,97924.72
2018-12-05T06:47:23.102Z,97915.14
2018-12-05T06:52:20.549Z,97934.96
2018-12-05T06:57:15.551Z,97952.67
2018-12-05T07:02:10.581Z,97945.81
2018-12-05T07:07:05.592Z,97949.25
2018-12-05T07:12:00.445Z,97950.13
2018-12-05T07:16:55.297Z,97950.55
2018-12-05T07:21:50.212Z,97949.23
2018-12-05T07:26:45.332Z,97945.33
2018-12-05T07:31:41.927Z,97953.99
2018-12-05T07:36:38.009Z,97964.65
2018-12-05T07:41:35.106Z,97960.92
2018-12-05T07:46:32.615Z,97961.41
2018-12-05T07:51:27.985Z,97975.67
2018-12-05T07:56:22.967Z,97974.63
2018-12-05T08:01:18.124Z,97973.14
2018-12-05T08:06:13.104Z,97974.05
2018-12-05T08:11:08.643Z,97980.21
2018-12-05T08:16:03.843Z,97983.00
2018-12-05T08:20:58.669Z,97983.08
2018-12-05T08:25:53.634Z,97975.81
2018-12-05T08:30:49.279Z,97969.48
2018-12-05T08:35:44.927Z,97974.82
2018-12-05T08:40:44.316Z,97970.62
2018-12-05T08:45:39.838Z,97978.94
2018-12-05T08:50:35.543Z,97973.08
2018-12-05T08:55:30.642Z,97968.33
2018-12-05T09:00:26.030Z,97963.75
2018-12-05T09:05:20.974Z,97965.23
2018-12-05T09:10:16.015Z,97958.17
2018-12-05T09:15:14.483Z,97953.80
2018-12-05T09:20:10.943Z,97953.74
2018-12-05T09:25:07.821Z,97946.72
2018-12-05T09:30:02.855Z,97945.38
2018-12-05T09:35:00.434Z,97950.00
2018-12-05T09:39:55.414Z,97949.16
2018-12-05T09:44:50.129Z,97945.41
2018-12-05T09:49:45.094Z,97937.59
2018-12-05T09:54:40.947Z,97930.69
2018-12-05T09:59:39.345Z,97933.68
2018-12-05T10:04:37.766Z,97932.81
2018-12-05T10:09:32.795Z,97935.07
2018-12-05T10:14:27.683Z,97930.22
2018-12-05T10:19:22.505Z,97923.45
2018-12-05T10:24:18.307Z,97923.99
2018-12-05T10:29:14.166Z,97917.55
2018-12-05T10:34:09.224Z,97911.30
2018-12-05T10:39:05.664Z,97892.91
2018-12-05T10:44:01.535Z,97888.91
2018-12-05T10:48:58.337Z,97885.30
2018-12-05T10:53:53.234Z,97880.01
2018-12-05T10:58:48.053Z,97870.32
2018-12-05T11:03:42.850Z,97871.41
2018-12-05T11:08:42.874Z,97861.42
2018-12-05T11:13:42.921Z,97856.88
2018-12-05T11:18:44.898Z,97847.89
2018-12-05T11:23:47.709Z,97844.59
2018-12-05T11:28:45.222Z,97848.48
2018-12-05T11:33:44.075Z,97846.83
2018-12-05T11:38:43.865Z,97834.20
2018-12-05T11:43:38.926Z,97841.84
2018-12-05T11:48:33.694Z,97843.98
2018-12-05T11:53:28.682Z,97833.83
2018-12-05T11:58:23.720Z,97826.63
2018-12-05T12:03:21.106Z,97817.91
2018-12-05T12:08:19.220Z,97817.31
2018-12-05T12:13:14.138Z,97812.52
2018-12-05T12:18:09.154Z,97814.92
2018-12-05T12:23:03.982Z,97807.64
2018-12-05T12:27:59.615Z,97813.13
2018-12-05T12:33:26.434Z,97804.94
2018-12-05T12:38:25.635Z,97798.48
2018-12-05T12:43:24.169Z,97791.10
2018-12-05T12:48:22.032Z,97774.48
2018-12-05T12:53:27.608Z,97761.88
2018-12-05T12:58:22.564Z,97756.82
2018-12-05T13:03:17.441Z,97748.89
2018-12-05T13:08:12.293Z,97742.48
2018-12-05T13:13:07.170Z,97740.12
2018-12-05T13:18:01.933Z,97733.49
2018-12-05T13:22:57.191Z,97717.63
2018-12-05T13:27:52.799Z,97719.44
2018-12-05T13:32:48.709Z,97706.37
2018-12-05T13:37:44.882Z,97710.55
2018-12-05T13:42:39.737Z,97708.78
2018-12-05T13:47:34.578Z,97708.42
2018-12-05T13:52:29.505Z,97695.39
2018-12-05T13:57:24.390Z,97690.16
2018-12-05T14:02:19.129Z,97684.33
2018-12-05T14:07:14.013Z,97675.23
2018-12-05T14:12:12.882Z,97680.33
2018-12-05T14:17:07.952Z,97680.38
2018-12-05T14:22:04.315Z,97686.48
2018-12-05T14:27:00.568Z,97686.95
2018-12-05T14:31:59.286Z,97688.83
2018-12-05T14:36:58.419Z,97681.84
2018-12-05T14:42:03.660Z,97677.08
2018-12-05T14:46:58.619Z,97660.72
2018-12-05T14:51:53.412Z,97657.23
2018-12-05T14:56:48.173Z,97659.23
2018-12-05T15:01:45.906Z,97649.78
2018-12-05T15:06:52.921Z,97633.38
2018-12-05T15:12:03.775Z,97625.78
2018-12-05T15:16:58.854Z,97622.10
2018-12-05T15:21:53.877Z,97619.36
2018-12-05T15:26:51.521Z,97607.42
2018-12-05T15:31:49.707Z,97590.75
2018-12-05T15:36:50.621Z,97593.69
2018-12-05T15:41:59.899Z,97589.67
2018-12-05T15:46:58.170Z,97583.77
2018-12-05T15:51:59.121Z,97584.45
2018-12-05T15:56:54.037Z,97581.16
2018-12-05T16:01:55.425Z,97575.70
2018-12-05T16:06:50.382Z,97566.86
2018-12-05T16:11:47.762Z,97570.63
2018-12-05T16:16:48.739Z,97561.59
2018-12-05T16:21:54.423Z,97558.52
2018-12-05T16:32:33.536Z,97557.77
2018-12-05T16:37:31.294Z,97553.02
2018-12-05T16:42:42.074Z,97550.00
2018-12-05T16:47:38.946Z,97551.45
2018-12-05T16:52:33.704Z,97556.00
2018-12-05T16:57:29.856Z,97562.53
2018-12-05T17:02:24.960Z,97541.44
2018-12-05T17:07:21.061Z,97537.29
2018-12-05T17:12:16.367Z,97544.32
2018-12-05T17:17:12.441Z,97537.28
2018-12-05T17:22:09.578Z,97526.94
2018-12-05T17:27:04.608Z,97525.23
2018-12-05T17:31:59.667Z,97522.81
2018-12-05T17:36:54.506Z,97527.97
2018-12-05T17:41:49.451Z,97525.83
2018-12-05T17:47:04.101Z,97521.36
2018-12-05T17:57:29.312Z,97518.47
2018-12-05T18:02:24.342Z,97513.86
2018-12-05T18:07:22.662Z,97501.86
2018-12-05T18:12:17.861Z,97489.28
2018-12-05T18:17:13.201Z,97480.94
2018-12-05T18:22:08.488Z,97477.78
2018-12-05T18:27:03.891Z,97476.02
2018-12-05T18:31:58.744Z,97489.62
2018-12-05T18:36:53.657Z,97480.11
2018-12-05T18:41:48.625Z,97453.27
2018-12-05T18:46:43.478Z,97457.45
2018-12-05T18:51:38.345Z,97457.81
2018-12-05T18:56:33.469Z,97459.95
2018-12-05T19:02:09.191Z,97463.26
2018-12-05T19:07:04.546Z,97470.09
2018-12-05T19:11:59.490Z,97462.13
2018-12-05T19:16:56.052Z,97451.67
2018-12-05T19:21:50.982Z,97451.77
2018-12-05T19:26:45.952Z,97473.22
2018-12-05T19:31:40.673Z,97478.05
2018-12-05T19:36:35.822Z,97487.69
2018-12-05T19:41:31.822Z,97490.53
2018-12-05T19:46:28.998Z,97478.80
2018-12-05T19:51:24.108Z,97491.66
2018-12-05T19:56:19.021Z,97478.11
2018-12-05T20:01:14.202Z,97474.48
2018-12-05T20:06:09.946Z,97480.16
2018-12-05T20:11:05.377Z,97481.61
2018-12-05T20:16:00.886Z,97461.36
2018-12-05T20:20:55.984Z,97462.29
2018-12-05T20:25:51.074Z,97460.01
2018-12-05T20:30:46.089Z,97458.06
2018-12-05T20:35:41.033Z,97452.61
2018-12-05T20:40:37.777Z,97441.25
2018-12-05T20:45:32.768Z,97441.42
2018-12-05T20:50:29.883Z,97436.82
2018-12-05T20:55:25.177Z,97428.31
2018-12-05T21:00:20.292Z,97441.53
2018-12-05T21:05:15.451Z,97439.63
2018-12-05T21:10:14.471Z,97450.05
2018-12-05T21:15:09.861Z,97451.26
2018-12-05T21:20:05.505Z,97441.17
2018-12-05T21:25:00.311Z,97412.59
2018-12-05T21:35:29.965Z,97385.45
2018-12-05T21:40:24.886Z,97377.92
2018-12-05T21:45:19.797Z,97381.50
2018-12-05T21:50:14.952Z,97375.88
2018-12-05T21:55:09.623Z,97374.15
2018-12-05T23:37:56.577Z,97400.21
2018-12-05T23:42:51.617Z,97396.77
2018-12-05T23:47:46.557Z,97415.48
2018-12-05T23:52:41.508Z,97411.05
2018-12-05T23:57:37.874Z,97377.83
